Time;durP1;ratioP1;P1;durP2;ratioP2;P2;SDS_P1;SDS_P2;PMS_P1;PMS_P2;Temp;Humidity;BMP_temperature;BMP_pressure;BME280_temperature;BME280_humidity;BME280_pressure;Samples;Min_cycle;Max_cycle;Signal;HPM_P1;HPM_P2
2021/06/13 00:01:10;;;;;;;3.40;3.10;;;;;;;;;;5055834;28;20176;-78
2021/06/13 00:03:37;;;;;;;4.97;3.23;;;;;;;;;;5055303;28;20820;-77
2021/06/13 00:06:03;;;;;;;4.87;3.40;;;;;;;;;;5054637;28;20195;-76
2021/06/13 00:08:30;;;;;;;6.37;3.00;;;;;;;;;;5054577;28;20648;-77
2021/06/13 00:10:58;;;;;;;4.53;3.30;;;;;;;;;;5054666;28;20536;-77
2021/06/13 00:13:24;;;;;;;6.57;3.27;;;;;;;;;;5055943;28;20227;-77
2021/06/13 00:15:51;;;;;;;3.30;3.00;;;;;;;;;;5055977;28;20215;-77
2021/06/13 00:18:17;;;;;;;5.47;2.90;;;;;;;;;;5055987;28;20207;-77
2021/06/13 00:20:44;;;;;;;5.47;3.00;;;;;;;;;;5054322;28;20203;-77
2021/06/13 00:23:10;;;;;;;3.60;3.00;;;;;;;;;;5054332;28;20203;-77
2021/06/13 00:25:36;;;;;;;5.07;3.30;;;;;;;;;;5054048;28;20203;-77
2021/06/13 00:28:04;;;;;;;3.77;3.03;;;;;;;;;;5053751;28;20199;-77
2021/06/13 00:30:30;;;;;;;5.63;2.93;;;;;;;;;;5054205;28;20207;-77
2021/06/13 00:32:56;;;;;;;4.47;3.00;;;;;;;;;;5055441;28;20773;-76
2021/06/13 00:35:23;;;;;;;5.93;3.10;;;;;;;;;;5054250;28;20204;-76
2021/06/13 00:37:49;;;;;;;5.30;3.70;;;;;;;;;;5055386;28;20203;-77
2021/06/13 00:40:17;;;;;;;3.83;3.00;;;;;;;;;;5055214;28;20211;-77
2021/06/13 00:42:44;;;;;;;5.77;3.20;;;;;;;;;;5054060;28;20614;-77
2021/06/13 00:45:12;;;;;;;3.63;2.90;;;;;;;;;;5054008;28;20203;-76
2021/06/13 00:47:38;;;;;;;3.03;2.80;;;;;;;;;;5053594;28;20204;-77
2021/06/13 00:50:06;;;;;;;4.73;3.17;;;;;;;;;;5053318;28;20680;-77
2021/06/13 00:52:32;;;;;;;6.20;3.20;;;;;;;;;;5053588;28;20207;-77
2021/06/13 00:54:58;;;;;;;3.40;3.07;;;;;;;;;;5054898;28;20577;-77
2021/06/13 00:57:24;;;;;;;3.33;3.03;;;;;;;;;;5055188;28;20242;-77
2021/06/13 00:59:51;;;;;;;4.23;2.90;;;;;;;;;;5055036;28;20211;-77
2021/06/13 01:02:18;;;;;;;7.53;3.40;;;;;;;;;;5054751;28;20257;-77
2021/06/13 01:04:44;;;;;;;5.10;2.90;;;;;;;;;;5053581;28;20210;-77
2021/06/13 01:07:15;;;;;;;4.10;3.00;;;;;;;;;;5053291;28;20257;-77
2021/06/13 01:09:44;;;;;;;6.60;2.87;;;;;;;;;;5054690;28;20254;-76
2021/06/13 01:12:12;;;;;;;6.43;2.93;;;;;;;;;;5054708;28;20762;-77
2021/06/13 01:14:41;;;;;;;5.37;3.40;;;;;;;;;;5054661;28;20262;-76
2021/06/13 01:17:10;;;;;;;6.50;3.00;;;;;;;;;;5054628;28;20253;-77
2021/06/13 01:19:45;;;;;;;9.60;3.80;;;;;;;;;;5054173;28;20222;-77
2021/06/13 01:22:20;;;;;;;7.47;3.17;;;;;;;;;;5053335;28;21063;-77
2021/06/13 01:24:52;;;;;;;3.43;2.90;;;;;;;;;;5053129;28;20734;-77
2021/06/13 01:27:26;;;;;;;4.63;2.93;;;;;;;;;;5052927;28;20695;-77
2021/06/13 01:29:55;;;;;;;5.27;2.83;;;;;;;;;;5054530;28;20277;-76
2021/06/13 01:32:23;;;;;;;5.37;2.80;;;;;;;;;;5054399;28;20175;-76
2021/06/13 01:34:51;;;;;;;3.27;2.50;;;;;;;;;;5052842;28;20223;-76
2021/06/13 01:37:18;;;;;;;5.10;2.80;;;;;;;;;;5054075;28;20705;-76
2021/06/13 01:39:46;;;;;;;4.40;3.00;;;;;;;;;;5054384;28;20247;-76
2021/06/13 01:42:13;;;;;;;7.57;2.73;;;;;;;;;;5052619;28;20211;-77
2021/06/13 01:44:40;;;;;;;5.37;3.00;;;;;;;;;;5052664;28;20235;-77
2021/06/13 01:47:09;;;;;;;3.43;2.87;;;;;;;;;;5052567;28;20249;-77
2021/06/13 01:49:35;;;;;;;5.47;2.80;;;;;;;;;;5054159;28;20223;-77
2021/06/13 01:52:01;;;;;;;5.50;2.60;;;;;;;;;;5053876;28;20214;-77
2021/06/13 01:54:30;;;;;;;7.90;3.30;;;;;;;;;;5052070;28;20592;-77
2021/06/13 01:56:57;;;;;;;8.53;3.43;;;;;;;;;;5052363;28;20199;-77
2021/06/13 01:59:23;;;;;;;6.53;3.10;;;;;;;;;;5052410;28;20215;-77
2021/06/13 02:01:51;;;;;;;7.43;2.53;;;;;;;;;;5051946;28;20570;-77
2021/06/13 02:04:19;;;;;;;3.27;2.67;;;;;;;;;;5052193;28;20235;-77
2021/06/13 02:06:47;;;;;;;6.33;2.80;;;;;;;;;;5053611;28;20211;-77
2021/06/13 02:09:14;;;;;;;5.67;2.83;;;;;;;;;;5052261;28;20736;-76
2021/06/13 02:11:41;;;;;;;4.07;2.73;;;;;;;;;;5052150;28;20541;-76
2021/06/13 02:14:09;;;;;;;4.73;2.80;;;;;;;;;;5051829;28;20300;-77
2021/06/13 02:16:36;;;;;;;2.70;2.50;;;;;;;;;;5053558;28;20231;-76
2021/06/13 02:19:03;;;;;;;4.63;3.10;;;;;;;;;;5053411;28;20203;-76
2021/06/13 02:21:31;;;;;;;3.17;2.67;;;;;;;;;;5052279;28;20226;-76
2021/06/13 02:23:57;;;;;;;3.87;2.60;;;;;;;;;;5053727;28;20239;-76
2021/06/13 02:26:24;;;;;;;4.80;2.70;;;;;;;;;;5053232;28;20580;-76
2021/06/13 02:28:50;;;;;;;6.03;2.80;;;;;;;;;;5052098;28;20187;-76
2021/06/13 02:31:18;;;;;;;6.27;3.00;;;;;;;;;;5053407;28;20239;-76
2021/06/13 02:33:45;;;;;;;4.67;2.90;;;;;;;;;;5053402;28;20226;-76
2021/06/13 02:36:11;;;;;;;4.63;2.67;;;;;;;;;;5053469;28;20211;-76
2021/06/13 02:38:39;;;;;;;7.57;2.50;;;;;;;;;;5051938;28;20195;-76
2021/06/13 02:41:05;;;;;;;3.73;2.63;;;;;;;;;;5051860;28;20269;-76
2021/06/13 02:43:32;;;;;;;3.97;2.80;;;;;;;;;;5053180;28;20239;-76
2021/06/13 02:45:58;;;;;;;4.13;2.53;;;;;;;;;;5051599;28;20208;-77
2021/06/13 02:48:24;;;;;;;5.07;2.50;;;;;;;;;;5051910;28;20546;-77
2021/06/13 02:50:51;;;;;;;6.60;2.57;;;;;;;;;;5051891;28;20268;-76
2021/06/13 02:53:19;;;;;;;5.83;2.83;;;;;;;;;;5051385;28;20280;-76
2021/06/13 02:55:51;;;;;;;6.83;2.57;;;;;;;;;;5053269;28;20203;-76
2021/06/13 02:58:25;;;;;;;5.67;2.77;;;;;;;;;;5051589;28;20497;-76
2021/06/13 03:00:52;;;;;;;4.80;3.17;;;;;;;;;;5051341;28;20225;-76
2021/06/13 03:03:20;;;;;;;7.13;3.17;;;;;;;;;;5051576;28;20301;-76
2021/06/13 03:05:47;;;;;;;4.03;2.80;;;;;;;;;;5051818;28;20204;-77
2021/06/13 03:08:14;;;;;;;3.43;2.90;;;;;;;;;;5051755;28;20261;-77
2021/06/13 03:10:40;;;;;;;6.67;3.20;;;;;;;;;;5053023;28;20246;-77
2021/06/13 03:13:08;;;;;;;5.73;2.97;;;;;;;;;;5051389;28;20203;-76
2021/06/13 03:15:34;;;;;;;5.97;2.93;;;;;;;;;;5054928;28;20195;-76
2021/06/13 03:18:01;;;;;;;6.07;2.90;;;;;;;;;;5056682;28;20210;-76
2021/06/13 03:20:27;;;;;;;7.53;3.17;;;;;;;;;;5055459;28;20261;-76
2021/06/13 03:22:54;;;;;;;4.23;2.73;;;;;;;;;;5054790;28;20203;-76
2021/06/13 03:25:21;;;;;;;4.20;2.87;;;;;;;;;;5056723;28;20207;-76
2021/06/13 03:27:47;;;;;;;6.80;3.23;;;;;;;;;;5056710;28;20235;-76
2021/06/13 03:30:15;;;;;;;7.80;3.40;;;;;;;;;;5056302;28;20617;-76
2021/06/13 03:32:42;;;;;;;11.10;3.17;;;;;;;;;;5055410;28;20199;-76
2021/06/13 03:35:08;;;;;;;3.30;3.00;;;;;;;;;;5055388;28;20631;-76
2021/06/13 03:37:35;;;;;;;6.27;2.90;;;;;;;;;;5055188;28;20200;-76
2021/06/13 03:40:04;;;;;;;5.77;2.87;;;;;;;;;;5056580;28;20247;-76
2021/06/13 03:42:30;;;;;;;5.90;3.23;;;;;;;;;;5054985;28;20740;-76
2021/06/13 03:44:58;;;;;;;8.47;3.00;;;;;;;;;;5054896;28;20223;-77
2021/06/13 03:47:27;;;;;;;7.60;3.40;;;;;;;;;;5054928;28;20203;-76
2021/06/13 03:49:54;;;;;;;4.87;2.83;;;;;;;;;;5054487;28;20212;-77
2021/06/13 03:52:22;;;;;;;5.23;3.00;;;;;;;;;;5056490;28;20232;-76
2021/06/13 03:54:49;;;;;;;5.83;2.63;;;;;;;;;;5054711;28;20265;-76
2021/06/13 03:57:16;;;;;;;5.77;3.47;;;;;;;;;;5055979;28;20207;-76
2021/06/13 03:59:46;;;;;;;6.70;3.07;;;;;;;;;;5056269;28;20211;-76
2021/06/13 04:02:14;;;;;;;7.20;2.90;;;;;;;;;;5055904;28;20223;-76
2021/06/13 04:04:43;;;;;;;2.77;2.57;;;;;;;;;;5054659;28;20644;-76
2021/06/13 04:07:10;;;;;;;3.67;2.53;;;;;;;;;;5054481;28;20218;-76
2021/06/13 04:09:38;;;;;;;7.47;3.03;;;;;;;;;;5054683;28;20562;-76
2021/06/13 04:12:06;;;;;;;10.13;3.00;;;;;;;;;;5055449;28;20663;-76
2021/06/13 04:14:33;;;;;;;6.63;3.20;;;;;;;;;;5054403;28;20257;-76
2021/06/13 04:17:00;;;;;;;4.93;2.80;;;;;;;;;;5054451;28;20200;-76
2021/06/13 04:19:27;;;;;;;4.73;2.90;;;;;;;;;;5054386;28;20199;-76
2021/06/13 04:21:56;;;;;;;8.77;3.30;;;;;;;;;;5055812;28;20292;-77
2021/06/13 04:24:22;;;;;;;5.17;2.90;;;;;;;;;;5055139;28;20535;-77
2021/06/13 04:26:49;;;;;;;5.53;2.77;;;;;;;;;;5053755;28;20765;-77
2021/06/13 04:29:16;;;;;;;6.27;3.13;;;;;;;;;;5055221;28;20242;-78
2021/06/13 04:31:42;;;;;;;5.50;2.80;;;;;;;;;;5055428;28;20184;-77
2021/06/13 04:34:09;;;;;;;5.07;3.60;;;;;;;;;;5053696;28;20251;-77
2021/06/13 04:36:36;;;;;;;4.23;2.90;;;;;;;;;;5055059;28;20345;-77
2021/06/13 04:39:04;;;;;;;5.27;3.30;;;;;;;;;;5055005;28;20879;-77
2021/06/13 04:41:33;;;;;;;5.60;2.77;;;;;;;;;;5055359;28;20187;-77
2021/06/13 04:44:00;;;;;;;7.17;3.53;;;;;;;;;;5053731;28;20203;-77
2021/06/13 04:46:28;;;;;;;9.50;2.80;;;;;;;;;;5053895;28;20226;-77
2021/06/13 04:48:55;;;;;;;4.27;3.00;;;;;;;;;;5053403;28;20241;-77
2021/06/13 04:51:24;;;;;;;9.20;3.37;;;;;;;;;;5054951;28;20241;-77
2021/06/13 04:53:59;;;;;;;5.50;3.23;;;;;;;;;;5053304;28;20195;-77
2021/06/13 04:56:33;;;;;;;5.23;3.10;;;;;;;;;;5053680;28;20206;-77
2021/06/13 04:58:59;;;;;;;5.33;2.90;;;;;;;;;;5054884;28;20214;-77
2021/06/13 05:01:26;;;;;;;7.17;3.10;;;;;;;;;;5053725;28;20226;-77
2021/06/13 05:03:53;;;;;;;7.40;3.00;;;;;;;;;;5054986;28;20263;-77
2021/06/13 05:06:20;;;;;;;4.73;3.00;;;;;;;;;;5053441;28;20191;-78
2021/06/13 05:08:47;;;;;;;6.17;3.13;;;;;;;;;;5054804;28;20187;-77
2021/06/13 05:11:13;;;;;;;7.50;3.17;;;;;;;;;;5053154;28;20207;-77
2021/06/13 05:13:41;;;;;;;8.43;3.43;;;;;;;;;;5054951;28;20242;-77
2021/06/13 05:16:08;;;;;;;7.67;3.20;;;;;;;;;;5052992;28;20289;-77
2021/06/13 05:18:35;;;;;;;13.03;3.83;;;;;;;;;;5054435;28;20215;-77
2021/06/13 05:21:03;;;;;;;7.00;3.37;;;;;;;;;;5054749;28;20697;-77
2021/06/13 05:23:30;;;;;;;13.33;4.10;;;;;;;;;;5054535;28;20180;-77
2021/06/13 05:25:57;;;;;;;4.27;3.30;;;;;;;;;;5054084;28;20235;-78
2021/06/13 05:28:24;;;;;;;5.57;3.60;;;;;;;;;;5054569;28;20215;-76
2021/06/13 05:30:53;;;;;;;6.20;3.43;;;;;;;;;;5053051;28;20215;-76
2021/06/13 05:33:20;;;;;;;7.73;3.13;;;;;;;;;;5052588;28;20574;-77
2021/06/13 05:35:48;;;;;;;5.43;3.40;;;;;;;;;;5054186;28;20238;-78
2021/06/13 05:38:14;;;;;;;5.00;3.80;;;;;;;;;;5069517;28;20234;-77
2021/06/13 05:40:42;;;;;;;4.40;3.43;;;;;;;;;;5074154;28;20238;-78
2021/06/13 05:43:09;;;;;;;5.33;3.07;;;;;;;;;;5072314;28;20198;-78
2021/06/13 05:45:36;;;;;;;8.20;3.20;;;;;;;;;;5072841;28;20202;-77
2021/06/13 05:48:05;;;;;;;8.03;3.00;;;;;;;;;;5072466;28;20195;-77
2021/06/13 05:50:32;;;;;;;4.67;3.30;;;;;;;;;;5073959;28;20179;-78
2021/06/13 05:52:58;;;;;;;9.87;3.57;;;;;;;;;;5073799;28;20179;-79
2021/06/13 05:55:25;;;;;;;5.40;3.20;;;;;;;;;;5072610;28;20234;-78
2021/06/13 05:57:52;;;;;;;4.83;3.00;;;;;;;;;;5073735;28;20206;-77
2021/06/13 06:00:20;;;;;;;4.43;3.30;;;;;;;;;;5071926;28;20202;-78
2021/06/13 06:02:47;;;;;;;5.43;3.10;;;;;;;;;;5072124;28;20235;-78
2021/06/13 06:05:16;;;;;;;4.63;2.93;;;;;;;;;;5073477;28;20245;-77
2021/06/13 06:07:43;;;;;;;3.87;2.87;;;;;;;;;;5073291;28;20241;-77
2021/06/13 06:10:10;;;;;;;6.50;3.20;;;;;;;;;;5073504;28;20179;-78
2021/06/13 06:12:37;;;;;;;5.27;2.67;;;;;;;;;;5072288;28;20240;-78
2021/06/13 06:15:05;;;;;;;7.30;2.67;;;;;;;;;;5073381;28;20233;-77
2021/06/13 06:17:31;;;;;;;6.73;3.10;;;;;;;;;;5072012;28;20679;-78
2021/06/13 06:19:58;;;;;;;5.20;2.77;;;;;;;;;;5073130;28;20249;-78
2021/06/13 06:22:26;;;;;;;3.73;3.27;;;;;;;;;;5073747;28;20191;-78
2021/06/13 06:24:53;;;;;;;6.37;2.63;;;;;;;;;;5073343;28;20893;-78
2021/06/13 06:27:20;;;;;;;3.50;2.50;;;;;;;;;;5071403;28;20222;-76
2021/06/13 06:29:46;;;;;;;5.40;3.00;;;;;;;;;;5071813;28;20566;-77
2021/06/13 06:32:13;;;;;;;5.03;2.67;;;;;;;;;;5073269;28;20222;-78
2021/06/13 06:34:40;;;;;;;5.57;3.20;;;;;;;;;;5072870;28;20210;-77
2021/06/13 06:37:07;;;;;;;5.63;3.00;;;;;;;;;;5071582;28;20251;-78
2021/06/13 06:39:37;;;;;;;7.23;3.10;;;;;;;;;;5071702;28;20284;-79
2021/06/13 06:42:04;;;;;;;7.90;2.80;;;;;;;;;;5071440;28;20198;-79
2021/06/13 06:44:31;;;;;;;4.57;2.57;;;;;;;;;;5071454;28;20198;-78
2021/06/13 06:47:01;;;;;;;7.90;2.90;;;;;;;;;;5070637;28;20756;-78
2021/06/13 06:49:28;;;;;;;3.27;2.73;;;;;;;;;;5071315;28;20207;-78
2021/06/13 06:51:55;;;;;;;4.80;2.40;;;;;;;;;;5073064;28;20186;-79
2021/06/13 06:54:21;;;;;;;4.57;2.80;;;;;;;;;;5071533;28;20202;-78
2021/06/13 06:56:50;;;;;;;6.53;3.17;;;;;;;;;;5072562;28;20250;-78
2021/06/13 06:59:16;;;;;;;5.53;3.40;;;;;;;;;;5072954;28;20249;-78
2021/06/13 07:01:43;;;;;;;5.65;2.67;;;;;;;;;;5072137;28;20761;-78
2021/06/13 07:04:10;;;;;;;7.33;2.63;;;;;;;;;;5070843;28;20226;-78
2021/06/13 07:06:37;;;;;;;7.07;2.83;;;;;;;;;;5072600;28;20210;-78
2021/06/13 07:09:04;;;;;;;3.73;2.47;;;;;;;;;;5071448;28;20833;-77
2021/06/13 07:11:30;;;;;;;4.43;2.90;;;;;;;;;;5071322;28;20206;-79
2021/06/13 07:13:58;;;;;;;4.10;3.07;;;;;;;;;;5072669;28;20214;-78
2021/06/13 07:16:26;;;;;;;6.13;2.90;;;;;;;;;;5071525;28;20242;-78
2021/06/13 07:18:52;;;;;;;8.87;3.70;;;;;;;;;;5071091;28;20198;-78
2021/06/13 07:21:19;;;;;;;7.93;3.70;;;;;;;;;;5071509;28;20236;-79
2021/06/13 07:23:45;;;;;;;7.03;3.07;;;;;;;;;;5071137;28;20236;-78
2021/06/13 07:26:12;;;;;;;3.77;2.97;;;;;;;;;;5072579;28;20630;-77
2021/06/13 07:28:39;;;;;;;3.43;3.10;;;;;;;;;;5072533;28;20203;-78
2021/06/13 07:31:07;;;;;;;8.47;3.30;;;;;;;;;;5072368;28;20238;-78
2021/06/13 07:33:33;;;;;;;4.93;3.47;;;;;;;;;;5072368;28;20210;-78
2021/06/13 07:36:01;;;;;;;9.70;3.10;;;;;;;;;;5071025;28;20246;-78
2021/06/13 07:38:29;;;;;;;6.93;3.20;;;;;;;;;;5070865;28;20203;-78
2021/06/13 07:40:56;;;;;;;5.10;3.20;;;;;;;;;;5072447;28;20217;-78
2021/06/13 07:43:22;;;;;;;6.93;3.50;;;;;;;;;;5070390;28;20257;-79
2021/06/13 07:45:49;;;;;;;4.50;2.90;;;;;;;;;;5071142;28;20195;-77
2021/06/13 07:48:17;;;;;;;4.60;3.13;;;;;;;;;;5072266;28;20248;-78
2021/06/13 07:50:44;;;;;;;8.93;3.00;;;;;;;;;;5070747;28;20206;-77
2021/06/13 07:53:10;;;;;;;3.63;3.00;;;;;;;;;;5072237;28;20312;-77
2021/06/13 07:55:37;;;;;;;4.43;3.00;;;;;;;;;;5072417;28;20266;-78
2021/06/13 07:58:04;;;;;;;3.87;2.50;;;;;;;;;;5070471;28;20206;-78
2021/06/13 08:00:31;;;;;;;5.50;3.20;;;;;;;;;;5073826;28;20245;-78
2021/06/13 08:02:58;;;;;;;4.37;2.93;;;;;;;;;;5075512;28;20238;-78
2021/06/13 08:05:27;;;;;;;4.27;2.67;;;;;;;;;;5074224;28;20203;-78
2021/06/13 08:07:54;;;;;;;7.03;3.20;;;;;;;;;;5075615;28;20210;-79
2021/06/13 08:10:21;;;;;;;4.90;3.07;;;;;;;;;;5074471;28;20234;-78
2021/06/13 08:12:48;;;;;;;4.43;3.13;;;;;;;;;;5075635;28;20179;-79
2021/06/13 08:15:15;;;;;;;3.87;2.67;;;;;;;;;;5075540;28;20674;-78
2021/06/13 08:17:42;;;;;;;8.27;2.80;;;;;;;;;;5075602;28;20214;-78
2021/06/13 08:20:10;;;;;;;3.13;2.60;;;;;;;;;;5074269;28;20217;-78
2021/06/13 08:22:38;;;;;;;5.63;2.70;;;;;;;;;;5075764;28;20211;-78
2021/06/13 08:25:05;;;;;;;3.47;2.80;;;;;;;;;;5073980;28;20245;-81
2021/06/13 08:27:32;;;;;;;4.13;2.90;;;;;;;;;;5074038;28;20703;-81
2021/06/13 08:29:59;;;;;;;6.37;2.67;;;;;;;;;;5074159;28;20210;-81
2021/06/13 08:32:27;;;;;;;4.90;3.20;;;;;;;;;;5075484;28;20214;-86
2021/06/13 08:34:53;;;;;;;4.50;2.80;;;;;;;;;;5073919;28;20256;-81
2021/06/13 08:37:20;;;;;;;3.03;2.75;;;;;;;;;;5073992;28;20793;-81
2021/06/13 08:39:48;;;;;;;5.43;3.07;;;;;;;;;;5074035;28;20234;-80
2021/06/13 08:42:15;;;;;;;4.47;3.00;;;;;;;;;;5073984;28;20240;-81
2021/06/13 08:44:42;;;;;;;7.10;3.33;;;;;;;;;;5073962;28;20655;-81
2021/06/13 08:47:11;;;;;;;3.78;2.80;;;;;;;;;;5074809;28;20803;-80
2021/06/13 08:49:38;;;;;;;3.90;3.10;;;;;;;;;;5073928;28;20647;-81
2021/06/13 08:52:05;;;;;;;4.30;2.75;;;;;;;;;;5073357;28;20205;-80
2021/06/13 08:54:32;;;;;;;6.23;2.63;;;;;;;;;;5075169;28;20210;-80
2021/06/13 08:57:00;;;;;;;5.03;2.75;;;;;;;;;;5073506;28;21457;-81
2021/06/13 08:59:27;;;;;;;7.05;2.70;;;;;;;;;;5073574;28;20561;-78
2021/06/13 09:01:53;;;;;;;4.57;3.10;;;;;;;;;;5073515;28;20686;-80
2021/06/13 09:04:20;;;;;;;4.28;2.70;;;;;;;;;;5056587;28;20223;-79
2021/06/13 09:06:47;;;;;;;7.50;2.67;;;;;;;;;;5073504;28;20187;-79
2021/06/13 09:09:19;;;;;;;4.25;2.60;;;;;;;;;;5073374;28;20260;-79
2021/06/13 09:11:57;;;;;;;5.00;2.63;;;;;;;;;;5073227;28;20662;-79
2021/06/13 09:14:26;;;;;;;9.50;2.97;;;;;;;;;;5075008;28;20175;-78
2021/06/13 09:16:53;;;;;;;3.35;2.60;;;;;;;;;;5074782;28;20599;-80
2021/06/13 09:19:20;;;;;;;3.47;2.30;;;;;;;;;;5074536;28;20211;-81
2021/06/13 09:21:47;;;;;;;3.97;2.80;;;;;;;;;;5074859;28;20191;-80
2021/06/13 09:24:17;;;;;;;5.45;2.70;;;;;;;;;;5073018;28;20225;-80
2021/06/13 09:26:44;;;;;;;4.07;2.53;;;;;;;;;;5073057;28;20223;-82
2021/06/13 09:29:11;;;;;;;4.55;2.38;;;;;;;;;;5072792;28;20240;-83
2021/06/13 09:31:39;;;;;;;3.38;2.30;;;;;;;;;;5073068;28;20226;-82
2021/06/13 09:34:06;;;;;;;5.45;2.75;;;;;;;;;;5072728;28;20209;-83
2021/06/13 09:36:33;;;;;;;6.32;2.25;;;;;;;;;;5073887;28;20258;-83
2021/06/13 09:39:04;;;;;;;5.07;2.50;;;;;;;;;;5073983;28;20210;-83
2021/06/13 09:41:32;;;;;;;3.28;2.25;;;;;;;;;;5072706;28;20203;-84
2021/06/13 09:44:00;;;;;;;4.15;2.63;;;;;;;;;;5073979;28;20238;-83
2021/06/13 09:46:28;;;;;;;5.22;2.40;;;;;;;;;;5072850;28;20751;-83
2021/06/13 09:48:57;;;;;;;4.25;2.40;;;;;;;;;;5072231;28;20535;-83
2021/06/13 09:51:25;;;;;;;3.55;2.13;;;;;;;;;;5074057;28;20179;-83
2021/06/13 09:53:52;;;;;;;3.35;2.22;;;;;;;;;;5072310;28;20206;-83
2021/06/13 09:56:26;;;;;;;2.60;1.92;;;;;;;;;;5073519;28;20269;-82
2021/06/13 09:58:58;;;;;;;5.40;2.47;;;;;;;;;;5072025;28;20690;-82
2021/06/13 10:01:26;;;;;;;3.05;2.15;;;;;;;;;;5072362;28;20224;-80
2021/06/13 10:03:53;;;;;;;4.05;2.22;;;;;;;;;;5072970;28;20258;-82
2021/06/13 10:06:21;;;;;;;3.45;1.70;;;;;;;;;;5073545;28;20304;-83
2021/06/13 10:08:48;;;;;;;4.82;2.50;;;;;;;;;;5072373;28;20653;-83
2021/06/13 10:11:15;;;;;;;7.13;2.63;;;;;;;;;;5072283;28;20233;-79
2021/06/13 10:13:44;;;;;;;3.80;2.10;;;;;;;;;;5071883;28;20256;-79
2021/06/13 10:16:11;;;;;;;4.25;2.60;;;;;;;;;;5073454;28;20237;-80
2021/06/13 10:18:40;;;;;;;6.57;2.30;;;;;;;;;;5073512;28;20240;-82
2021/06/13 10:21:08;;;;;;;6.07;2.20;;;;;;;;;;5072070;28;20229;-81
2021/06/13 10:23:36;;;;;;;4.50;2.33;;;;;;;;;;5073108;28;20202;-80
2021/06/13 10:26:03;;;;;;;4.47;2.45;;;;;;;;;;5071660;28;20225;-81
2021/06/13 10:28:30;;;;;;;7.20;2.60;;;;;;;;;;5073401;28;20249;-81
2021/06/13 10:30:57;;;;;;;4.43;2.20;;;;;;;;;;5072005;28;20245;-79
2021/06/13 10:33:24;;;;;;;5.45;2.50;;;;;;;;;;5071712;28;20225;-80
2021/06/13 10:35:51;;;;;;;3.03;1.90;;;;;;;;;;5071422;28;20549;-80
2021/06/13 10:38:18;;;;;;;4.40;2.10;;;;;;;;;;5071749;28;20268;-80
2021/06/13 10:40:46;;;;;;;6.50;2.22;;;;;;;;;;5071193;28;20264;-80
2021/06/13 10:43:20;;;;;;;8.07;2.45;;;;;;;;;;5071759;28;20195;-81
2021/06/13 10:45:47;;;;;;;5.35;2.13;;;;;;;;;;5071606;28;20213;-80
2021/06/13 10:48:13;;;;;;;4.22;2.22;;;;;;;;;;5072894;28;20187;-81
2021/06/13 10:50:41;;;;;;;6.65;2.58;;;;;;;;;;5073125;28;20563;-81
2021/06/13 10:53:09;;;;;;;5.20;1.88;;;;;;;;;;5071432;28;20244;-80
2021/06/13 10:55:48;;;;;;;2.13;1.85;;;;;;;;;;5071394;28;20229;-80
2021/06/13 10:58:29;;;;;;;6.30;2.60;;;;;;;;;;5072717;28;20245;-82
2021/06/13 11:01:11;;;;;;;7.00;2.28;;;;;;;;;;5070452;28;20233;-83
2021/06/13 11:03:52;;;;;;;4.13;2.38;;;;;;;;;;5072077;28;20837;-80
2021/06/13 11:06:39;;;;;;;4.43;2.28;;;;;;;;;;5072397;28;20214;-81
2021/06/13 11:09:06;;;;;;;3.63;2.28;;;;;;;;;;5072892;28;20215;-82
2021/06/13 11:11:34;;;;;;;5.03;2.05;;;;;;;;;;5072828;28;20268;-83
2021/06/13 11:14:16;;;;;;;3.20;2.00;;;;;;;;;;5072495;28;20206;-82
2021/06/13 11:16:43;;;;;;;2.80;2.50;;;;;;;;;;5072123;28;20267;-80
2021/06/13 11:19:25;;;;;;;2.33;1.85;;;;;;;;;;5071206;28;20674;-82
2021/06/13 11:22:07;;;;;;;2.97;1.77;;;;;;;;;;5072906;28;20199;-81
2021/06/13 11:24:46;;;;;;;3.33;2.10;;;;;;;;;;5071175;28;20856;-80
2021/06/13 11:27:15;;;;;;;4.28;2.38;;;;;;;;;;5071049;28;20747;-83
2021/06/13 11:29:54;;;;;;;3.67;2.10;;;;;;;;;;5072936;28;20179;-83
2021/06/13 11:32:40;;;;;;;4.88;2.10;;;;;;;;;;5071088;28;21304;-84
2021/06/13 11:35:21;;;;;;;4.93;2.15;;;;;;;;;;5072893;28;20744;-83
2021/06/13 11:37:49;;;;;;;4.93;2.30;;;;;;;;;;5074822;28;20256;-83
2021/06/13 11:40:29;;;;;;;2.35;1.70;;;;;;;;;;5075725;28;20211;-83
2021/06/13 11:43:13;;;;;;;4.05;1.80;;;;;;;;;;5076244;28;20202;-83
2021/06/13 11:45:50;;;;;;;5.75;2.10;;;;;;;;;;5074649;28;20200;-83
2021/06/13 11:48:18;;;;;;;3.60;1.80;;;;;;;;;;5075453;28;20301;-82
2021/06/13 11:50:58;;;;;;;4.60;2.10;;;;;;;;;;5074431;28;20203;-83
2021/06/13 11:53:40;;;;;;;3.25;1.77;;;;;;;;;;5074738;28;20248;-84
2021/06/13 11:56:07;;;;;;;6.03;2.13;;;;;;;;;;5073282;28;21072;-83
2021/06/13 11:58:35;;;;;;;4.18;2.25;;;;;;;;;;5075982;28;20226;-84
2021/06/13 12:01:04;;;;;;;2.97;1.90;;;;;;;;;;5074539;28;20199;-83
2021/06/13 12:03:30;;;;;;;5.05;2.20;;;;;;;;;;5073896;28;20815;-84
2021/06/13 12:06:03;;;;;;;5.45;2.00;;;;;;;;;;5074204;28;20248;-84
2021/06/13 12:08:30;;;;;;;2.47;2.00;;;;;;;;;;5073858;28;20206;-84
2021/06/13 12:10:57;;;;;;;2.45;1.85;;;;;;;;;;5074055;28;20248;-84
2021/06/13 12:13:26;;;;;;;2.42;1.67;;;;;;;;;;5075578;28;20211;-84
2021/06/13 12:15:54;;;;;;;3.05;1.52;;;;;;;;;;5075809;28;20178;-86
2021/06/13 12:18:21;;;;;;;2.55;1.67;;;;;;;;;;5074369;28;20257;-85
2021/06/13 12:20:55;;;;;;;3.38;1.52;;;;;;;;;;5075038;28;20194;-84
2021/06/13 12:23:30;;;;;;;2.38;2.17;;;;;;;;;;5090777;28;20194;-85
2021/06/13 12:28:41;;;;;;;3.17;1.75;;;;;;;;;;5074104;28;20267;-83
2021/06/13 12:31:09;;;;;;;1.73;1.40;;;;;;;;;;5075651;28;20246;-81
2021/06/13 12:33:36;;;;;;;2.83;2.05;;;;;;;;;;5073469;28;20668;-83
2021/06/13 12:36:06;;;;;;;12.25;2.42;;;;;;;;;;5073698;28;20251;-81
2021/06/13 12:38:34;;;;;;;5.18;1.90;;;;;;;;;;5073856;28;20241;-83
2021/06/13 12:41:01;;;;;;;2.03;1.80;;;;;;;;;;5074689;28;20190;-89
2021/06/13 12:43:33;;;;;;;2.50;1.50;;;;;;;;;;5075135;28;20585;-90
2021/06/13 12:46:00;;;;;;;2.25;1.70;;;;;;;;;;5075943;28;20186;-90
2021/06/13 12:48:29;;;;;;;3.15;1.80;;;;;;;;;;5075316;28;20535;-86
2021/06/13 12:50:55;;;;;;;3.10;1.67;;;;;;;;;;5074591;28;20205;-85
2021/06/13 12:53:22;;;;;;;2.22;1.80;;;;;;;;;;5074237;28;20202;-93
2021/06/13 12:55:54;;;;;;;3.90;1.60;;;;;;;;;;5076419;28;20236;-90
2021/06/13 12:58:21;;;;;;;1.52;1.42;;;;;;;;;;5076001;28;20597;-91
2021/06/13 13:00:48;;;;;;;2.20;1.60;;;;;;;;;;5075605;28;20237;-89
2021/06/13 13:03:16;;;;;;;3.15;1.58;;;;;;;;;;5074037;28;20761;-87
2021/06/13 13:05:44;;;;;;;3.47;1.75;;;;;;;;;;5091083;28;20247;-88
2021/06/13 13:08:12;;;;;;;6.13;1.80;;;;;;;;;;5075662;28;20175;-88
2021/06/13 13:10:38;;;;;;;2.08;1.80;;;;;;;;;;5074576;28;20198;-88
2021/06/13 13:13:06;;;;;;;2.33;1.60;;;;;;;;;;5075772;28;20190;-87
2021/06/13 13:15:33;;;;;;;1.45;1.35;;;;;;;;;;5074138;28;20685;-87
2021/06/13 13:18:11;;;;;;;1.65;1.55;;;;;;;;;;5074923;28;20226;-86
2021/06/13 13:20:38;;;;;;;3.55;1.60;;;;;;;;;;5074121;28;20194;-87
2021/06/13 13:23:07;;;;;;;1.52;1.23;;;;;;;;;;5073348;28;20207;-86
2021/06/13 13:25:34;;;;;;;4.10;1.60;;;;;;;;;;5074217;28;20555;-87
2021/06/13 13:28:16;;;;;;;1.25;1.15;;;;;;;;;;5074031;28;20191;-96
2021/06/13 13:30:42;;;;;;;3.08;1.83;;;;;;;;;;5073451;28;20203;-86
2021/06/13 13:33:09;;;;;;;4.28;1.25;;;;;;;;;;5074391;28;20183;-86
2021/06/13 13:35:37;;;;;;;2.05;1.40;;;;;;;;;;5073003;28;20236;-85
2021/06/13 13:38:04;;;;;;;1.70;1.38;;;;;;;;;;5089464;28;20276;-86
2021/06/13 13:40:32;;;;;;;2.80;1.60;;;;;;;;;;5073526;28;20191;-86
2021/06/13 13:43:00;;;;;;;5.63;1.70;;;;;;;;;;5074081;28;20242;-86
2021/06/13 13:45:27;;;;;;;5.93;2.05;;;;;;;;;;5074489;28;20178;-83
2021/06/13 13:47:54;;;;;;;3.63;1.40;;;;;;;;;;5073193;28;20559;-87
2021/06/13 13:50:33;;;;;;;4.72;1.70;;;;;;;;;;5073160;28;20198;-86
2021/06/13 13:53:12;;;;;;;5.97;1.70;;;;;;;;;;5073193;28;20202;-88
2021/06/13 13:55:46;;;;;;;2.97;1.45;;;;;;;;;;5072613;28;20202;-87
2021/06/13 13:58:14;;;;;;;3.60;1.40;;;;;;;;;;5072417;28;20283;-87
2021/06/13 14:00:41;;;;;;;2.20;1.65;;;;;;;;;;5073081;28;20190;-86
2021/06/13 14:03:08;;;;;;;2.17;1.60;;;;;;;;;;5072269;28;20284;-85
2021/06/13 14:05:35;;;;;;;4.60;1.70;;;;;;;;;;5072917;28;20236;-88
2021/06/13 14:08:01;;;;;;;2.75;1.70;;;;;;;;;;5073446;28;20201;-88
2021/06/13 14:10:28;;;;;;;1.60;1.50;;;;;;;;;;5073251;28;20194;-86
2021/06/13 14:12:56;;;;;;;5.22;2.35;;;;;;;;;;5073920;28;20214;-90
2021/06/13 14:15:23;;;;;;;1.67;1.20;;;;;;;;;;5072787;28;20187;-87
2021/06/13 14:17:49;;;;;;;4.30;1.42;;;;;;;;;;5074259;28;20232;-86
2021/06/13 14:20:16;;;;;;;5.15;1.50;;;;;;;;;;5072593;28;20206;-89
2021/06/13 14:22:43;;;;;;;1.20;1.20;;;;;;;;;;5073305;28;20593;-87
2021/06/13 14:25:11;;;;;;;2.92;1.40;;;;;;;;;;5070391;28;20756;-82
2021/06/13 14:27:37;;;;;;;1.63;1.15;;;;;;;;;;5072639;28;20579;-85
2021/06/13 14:30:06;;;;;;;1.92;1.30;;;;;;;;;;5072047;28;20190;-84
2021/06/13 14:32:32;;;;;;;2.33;1.15;;;;;;;;;;5071605;28;20202;-83
2021/06/13 14:34:59;;;;;;;3.13;1.20;;;;;;;;;;5071495;28;20206;-84
2021/06/13 14:37:26;;;;;;;2.17;1.60;;;;;;;;;;5073488;28;20179;-84
2021/06/13 14:39:56;;;;;;;2.88;1.55;;;;;;;;;;5088509;28;20249;-84
2021/06/13 14:42:22;;;;;;;1.63;1.27;;;;;;;;;;5071813;28;20190;-84
2021/06/13 14:44:49;;;;;;;1.63;1.52;;;;;;;;;;5071695;28;20236;-84
2021/06/13 14:47:17;;;;;;;2.97;1.42;;;;;;;;;;5071768;28;20244;-84
2021/06/13 14:49:44;;;;;;;3.22;2.03;;;;;;;;;;5071783;28;20187;-83
2021/06/13 14:52:11;;;;;;;2.40;1.83;;;;;;;;;;5073010;28;20209;-85